createdAt,value
2018-09-30T00:00:16.486Z,74.37
2018-09-30T00:01:16.465Z,74.74
2018-09-30T00:02:16.453Z,74.27
2018-09-30T00:03:16.441Z,74.37
2018-09-30T00:04:16.429Z,74.55
2018-09-30T00:05:16.419Z,75.03
2018-09-30T00:06:16.413Z,74.84
2018-09-30T00:07:16.398Z,74.46
2018-09-30T00:08:16.388Z,75.13
2018-09-30T00:09:16.372Z,74.84
2018-09-30T00:10:16.360Z,74.74
2018-09-30T00:11:16.348Z,74.74
2018-09-30T00:12:16.340Z,74.84
2018-09-30T00:13:16.330Z,75.42
2018-09-30T00:14:16.314Z,75.13
2018-09-30T00:15:16.304Z,75.13
2018-09-30T00:16:16.293Z,74.37
2018-09-30T00:17:16.279Z,74.17
2018-09-30T00:18:16.274Z,74.55
2018-09-30T00:19:16.262Z,74.17
2018-09-30T00:20:16.251Z,74.55
2018-09-30T00:21:16.238Z,74.37
2018-09-30T00:22:16.226Z,75.13
2018-09-30T00:23:16.214Z,74.93
2018-09-30T00:24:16.209Z,74.46
2018-09-30T00:25:16.195Z,74.55
2018-09-30T00:26:16.181Z,74.37
2018-09-30T00:27:16.173Z,74.27
2018-09-30T00:28:16.155Z,74.84
2018-09-30T00:29:16.155Z,74.27
2018-09-30T00:30:16.138Z,74.84
2018-09-30T00:31:16.124Z,74.37
2018-09-30T00:32:16.118Z,74.27
2018-09-30T00:33:16.102Z,74.55
2018-09-30T00:34:16.090Z,74.17
2018-09-30T00:35:16.092Z,74.74
2018-09-30T00:36:16.078Z,74.65
2018-09-30T00:37:16.054Z,74.27
2018-09-30T00:38:16.046Z,74.27
2018-09-30T00:39:16.038Z,74.37
2018-09-30T00:40:16.029Z,74.74
2018-09-30T00:41:16.015Z,74.17
2018-09-30T00:42:16.003Z,74.17
2018-09-30T00:43:15.989Z,74.46
2018-09-30T00:44:15.978Z,74.37
2018-09-30T00:45:15.964Z,74.65
2018-09-30T00:46:15.956Z,74.74
2018-09-30T00:47:15.952Z,75.13
2018-09-30T00:48:15.937Z,75.13
2018-09-30T00:49:15.967Z,74.65
2018-09-30T00:50:15.913Z,75.79
2018-09-30T00:51:15.896Z,75.70
2018-09-30T00:52:15.890Z,75.51
2018-09-30T00:53:15.878Z,75.22
2018-09-30T00:54:15.871Z,75.13
2018-09-30T00:55:15.852Z,75.32
2018-09-30T00:56:15.839Z,74.93
2018-09-30T00:57:15.831Z,74.46
2018-09-30T00:58:15.820Z,73.32
2018-09-30T00:59:15.810Z,72.83
2018-09-30T01:00:15.800Z,73.03
2018-09-30T01:01:15.781Z,72.07
2018-09-30T01:02:15.772Z,71.78
2018-09-30T01:03:15.779Z,71.69
2018-09-30T01:04:15.756Z,71.88
2018-09-30T01:05:15.738Z,72.07
2018-09-30T01:06:15.737Z,71.69
2018-09-30T01:07:15.720Z,71.88
2018-09-30T01:08:15.706Z,71.98
2018-09-30T01:09:15.697Z,71.41
2018-09-30T01:10:15.682Z,71.69
2018-09-30T01:11:15.672Z,71.15
2018-09-30T01:12:15.663Z,70.64
2018-09-30T01:13:15.647Z,70.26
2018-09-30T01:14:15.631Z,70.73
2018-09-30T01:15:15.623Z,69.97
2018-09-30T01:16:15.617Z,70.45
2018-09-30T01:17:15.602Z,70.64
2018-09-30T01:18:15.589Z,71.06
2018-09-30T01:19:15.575Z,70.45
2018-09-30T01:20:15.570Z,70.92
2018-09-30T01:21:15.560Z,70.96
2018-09-30T01:22:15.549Z,71.02
2018-09-30T01:23:15.534Z,71.02
2018-09-30T01:24:15.520Z,70.67
2018-09-30T01:25:15.518Z,70.73
2018-09-30T01:26:15.501Z,70.54
2018-09-30T01:27:15.487Z,70.16
2018-09-30T01:28:15.482Z,70.36
2018-09-30T01:29:15.469Z,70.67
2018-09-30T01:30:15.457Z,70.67
2018-09-30T01:31:15.443Z,70.48
2018-09-30T01:32:15.444Z,70.39
2018-09-30T01:33:15.422Z,70.67
2018-09-30T01:34:15.410Z,70.58
2018-09-30T01:35:15.398Z,70.20
2018-09-30T01:36:15.386Z,70.07
2018-09-30T01:37:15.375Z,70.01
2018-09-30T01:38:15.363Z,71.12
2018-09-30T01:39:15.354Z,70.39
2018-09-30T01:40:15.340Z,71.12
2018-09-30T01:41:15.331Z,70.92
2018-09-30T01:42:15.316Z,71.59
2018-09-30T01:43:15.305Z,71.31
2018-09-30T01:44:15.296Z,71.78
2018-09-30T01:45:15.285Z,71.69
2018-09-30T01:46:15.270Z,72.17
2018-09-30T01:47:15.263Z,72.17
2018-09-30T01:48:15.252Z,72.93
2018-09-30T01:49:15.241Z,72.64
2018-09-30T01:50:15.231Z,72.55
2018-09-30T01:51:15.214Z,72.83
2018-09-30T01:52:15.202Z,71.78
2018-09-30T01:53:15.192Z,72.36
2018-09-30T01:54:15.182Z,72.64
2018-09-30T01:55:15.174Z,72.17
2018-09-30T01:56:15.159Z,72.26
2018-09-30T01:57:15.149Z,72.45
2018-09-30T01:58:15.149Z,71.88
2018-09-30T01:59:15.122Z,71.69
2018-09-30T02:00:15.116Z,72.17
2018-09-30T02:01:15.110Z,71.98
2018-09-30T02:02:15.094Z,70.92
2018-09-30T02:03:15.082Z,71.50
2018-09-30T02:04:15.070Z,71.69
2018-09-30T02:05:15.065Z,71.98
2018-09-30T02:06:15.086Z,71.50
2018-09-30T02:07:15.038Z,71.50
2018-09-30T02:08:15.027Z,72.17
2018-09-30T02:09:15.013Z,71.78
2018-09-30T02:10:15.022Z,72.36
2018-09-30T02:11:14.990Z,72.64
2018-09-30T02:12:14.981Z,72.55
2018-09-30T02:13:14.964Z,73.12
2018-09-30T02:14:14.955Z,73.22
2018-09-30T02:15:14.945Z,72.74
2018-09-30T02:16:14.927Z,72.74
2018-09-30T02:17:14.922Z,71.98
2018-09-30T02:18:14.908Z,72.07
2018-09-30T02:19:14.892Z,72.36
2018-09-30T02:20:14.884Z,72.55
2018-09-30T02:21:14.880Z,73.50
2018-09-30T02:22:14.859Z,72.45
2018-09-30T02:23:14.852Z,72.07
2018-09-30T02:24:14.837Z,72.74
2018-09-30T02:25:14.837Z,73.41
2018-09-30T02:26:14.820Z,73.50
2018-09-30T02:27:14.810Z,72.83
2018-09-30T02:28:14.799Z,72.64
2018-09-30T02:29:14.783Z,72.64
2018-09-30T02:30:14.769Z,72.36
2018-09-30T02:31:14.762Z,72.93
2018-09-30T02:32:14.749Z,72.64
2018-09-30T02:33:14.742Z,72.55
2018-09-30T02:34:14.724Z,72.74
2018-09-30T02:35:14.720Z,73.22
2018-09-30T02:36:14.704Z,73.12
2018-09-30T02:37:14.702Z,73.22
2018-09-30T02:38:14.686Z,73.12
2018-09-30T02:39:14.672Z,72.55
2018-09-30T02:40:14.661Z,72.83
2018-09-30T02:41:14.649Z,72.55
2018-09-30T02:42:14.635Z,72.36
2018-09-30T02:43:14.624Z,72.45
2018-09-30T02:44:14.611Z,72.64
2018-09-30T02:45:14.603Z,72.93
2018-09-30T02:46:14.591Z,73.32
2018-09-30T02:47:14.577Z,73.60
2018-09-30T02:48:14.563Z,73.12
2018-09-30T02:49:14.556Z,73.41
2018-09-30T02:50:14.540Z,73.41
2018-09-30T02:51:14.536Z,73.50
2018-09-30T02:52:14.524Z,73.88
2018-09-30T02:53:14.513Z,73.69
2018-09-30T02:54:14.496Z,73.79
2018-09-30T02:55:14.486Z,74.08
2018-09-30T02:56:14.477Z,73.60
2018-09-30T02:57:14.463Z,73.60
2018-09-30T02:58:14.455Z,73.50
2018-09-30T02:59:14.445Z,73.50
2018-09-30T03:00:14.430Z,73.60
2018-09-30T03:01:14.420Z,73.85
2018-09-30T03:02:14.406Z,73.47
2018-09-30T03:03:14.399Z,72.13
2018-09-30T03:04:14.396Z,72.32
2018-09-30T03:05:14.377Z,72.23
2018-09-30T03:06:14.365Z,72.51
2018-09-30T03:07:14.355Z,73.18
2018-09-30T03:08:14.340Z,73.37
2018-09-30T03:09:14.328Z,73.18
2018-09-30T03:10:14.315Z,73.28
2018-09-30T03:11:14.307Z,73.94
2018-09-30T03:12:14.299Z,74.23
2018-09-30T03:13:14.277Z,74.52
2018-09-30T03:14:14.267Z,73.85
2018-09-30T03:15:14.258Z,73.37
2018-09-30T03:16:14.243Z,73.37
2018-09-30T03:17:14.239Z,73.37
2018-09-30T03:18:14.227Z,72.71
2018-09-30T03:19:14.209Z,72.13
2018-09-30T03:20:14.202Z,71.84
2018-09-30T03:21:14.188Z,71.75
2018-09-30T03:22:14.178Z,71.66
2018-09-30T03:23:14.162Z,71.56
2018-09-30T03:24:14.156Z,71.46
2018-09-30T03:25:14.145Z,71.37
2018-09-30T03:26:14.132Z,71.18
2018-09-30T03:27:14.128Z,71.46
2018-09-30T03:28:14.113Z,71.66
2018-09-30T03:29:14.101Z,71.37
2018-09-30T03:30:14.087Z,70.89
2018-09-30T03:31:14.077Z,71.08
2018-09-30T03:32:14.060Z,71.08
2018-09-30T03:33:14.048Z,71.37
2018-09-30T03:34:14.034Z,71.08
2018-09-30T03:35:14.030Z,71.02
2018-09-30T03:36:14.013Z,71.08
2018-09-30T03:37:14.006Z,71.27
2018-09-30T03:38:13.992Z,71.78
2018-09-30T03:39:13.984Z,71.46
2018-09-30T03:40:13.978Z,71.46
2018-09-30T03:41:13.955Z,71.75
2018-09-30T03:42:13.947Z,71.46
2018-09-30T03:43:13.937Z,71.46
2018-09-30T03:44:13.924Z,71.50
2018-09-30T03:45:13.915Z,72.13
2018-09-30T03:46:13.898Z,71.75
2018-09-30T03:47:13.894Z,71.94
2018-09-30T03:48:13.878Z,71.75
2018-09-30T03:49:13.865Z,72.32
2018-09-30T03:50:13.860Z,72.71
2018-09-30T03:51:13.843Z,72.51
2018-09-30T03:52:13.831Z,72.89
2018-09-30T03:53:13.819Z,72.32
2018-09-30T03:54:13.808Z,72.13
2018-09-30T03:55:13.796Z,72.32
2018-09-30T03:56:13.786Z,71.66
2018-09-30T03:57:13.775Z,72.13
2018-09-30T03:58:13.760Z,71.94
2018-09-30T03:59:13.750Z,72.23
2018-09-30T04:00:13.773Z,73.08
2018-09-30T04:01:13.729Z,72.32
2018-09-30T04:02:13.709Z,71.37
2018-09-30T04:03:13.707Z,71.66
2018-09-30T04:04:13.690Z,72.32
2018-09-30T04:05:13.682Z,72.89
2018-09-30T04:06:13.668Z,73.47
2018-09-30T04:07:13.658Z,73.28
2018-09-30T04:08:13.726Z,73.37
2018-09-30T04:09:13.637Z,73.56
2018-09-30T04:10:13.699Z,73.56
2018-09-30T04:11:13.612Z,74.42
2018-09-30T04:12:13.599Z,73.37
2018-09-30T04:13:13.589Z,72.71
2018-09-30T04:14:13.575Z,72.61
2018-09-30T04:15:13.566Z,72.89
2018-09-30T04:16:13.552Z,72.61
2018-09-30T04:17:13.570Z,72.89
2018-09-30T04:18:13.532Z,72.80
2018-09-30T04:19:13.520Z,72.13
2018-09-30T04:20:13.507Z,72.32
2018-09-30T04:21:13.494Z,72.71
2018-09-30T04:22:13.487Z,71.18
2018-09-30T04:23:13.470Z,71.75
2018-09-30T04:24:13.461Z,71.94
2018-09-30T04:25:13.452Z,71.94
2018-09-30T04:26:13.433Z,71.75
2018-09-30T04:27:13.423Z,72.13
2018-09-30T04:28:13.421Z,71.66
2018-09-30T04:29:13.395Z,72.80
2018-09-30T04:30:13.389Z,72.32
2018-09-30T04:31:13.381Z,72.03
2018-09-30T04:32:13.366Z,72.51
2018-09-30T04:33:13.440Z,72.99
2018-09-30T04:34:13.347Z,73.28
2018-09-30T04:35:13.333Z,72.89
2018-09-30T04:36:13.323Z,72.71
2018-09-30T04:37:13.317Z,72.99
2018-09-30T04:38:13.294Z,72.96
2018-09-30T04:39:13.290Z,72.89
2018-09-30T04:40:13.270Z,72.51
2018-09-30T04:41:13.264Z,72.42
2018-09-30T04:42:13.246Z,72.99
2018-09-30T04:43:13.251Z,72.71
2018-09-30T04:44:13.237Z,72.61
2018-09-30T04:45:13.222Z,72.89
2018-09-30T04:46:13.204Z,73.37
2018-09-30T04:47:13.183Z,73.37
2018-09-30T04:48:13.180Z,73.08
2018-09-30T04:49:13.166Z,73.18
2018-09-30T04:50:13.157Z,73.18
2018-09-30T04:51:13.144Z,73.37
2018-09-30T04:52:13.128Z,73.47
2018-09-30T04:53:13.132Z,72.89
2018-09-30T04:54:13.107Z,72.99
2018-09-30T04:55:13.095Z,73.47
2018-09-30T04:56:13.088Z,73.37
2018-09-30T04:57:13.081Z,73.66
2018-09-30T04:58:13.069Z,73.37
2018-09-30T04:59:13.053Z,73.08
2018-09-30T05:00:13.044Z,73.56
2018-09-30T05:01:13.027Z,73.37
2018-09-30T05:02:13.020Z,73.37
2018-09-30T05:03:13.005Z,73.08
2018-09-30T05:04:12.992Z,73.37
2018-09-30T05:05:12.980Z,73.47
2018-09-30T05:06:12.968Z,73.28
2018-09-30T05:07:12.964Z,72.89
2018-09-30T05:08:12.943Z,72.80
2018-09-30T05:09:12.933Z,72.99
2018-09-30T05:10:12.922Z,72.86
2018-09-30T05:11:12.914Z,73.05
2018-09-30T05:12:12.896Z,73.43
2018-09-30T05:13:12.892Z,73.81
2018-09-30T05:14:12.880Z,73.52
2018-09-30T05:15:12.860Z,74.10
2018-09-30T05:16:12.880Z,73.72
2018-09-30T05:17:12.842Z,73.81
2018-09-30T05:18:12.828Z,74.19
2018-09-30T05:19:12.816Z,74.67
2018-09-30T05:20:12.805Z,74.48
2018-09-30T05:21:12.795Z,74.57
2018-09-30T05:22:12.781Z,75.05
2018-09-30T05:23:12.769Z,74.77
2018-09-30T05:24:12.759Z,74.38
2018-09-30T05:25:12.757Z,74.48
2018-09-30T05:26:12.735Z,74.48
2018-09-30T05:27:12.723Z,73.91
2018-09-30T05:28:12.710Z,74.48
2018-09-30T05:29:12.696Z,74.29
2018-09-30T05:30:12.686Z,74.48
2018-09-30T05:31:12.728Z,74.29
2018-09-30T05:32:12.666Z,73.72
2018-09-30T05:33:12.657Z,73.81
2018-09-30T05:34:12.642Z,73.72
2018-09-30T05:35:12.632Z,74.01
2018-09-30T05:36:12.615Z,73.91
2018-09-30T05:37:12.675Z,74.57
2018-09-30T05:38:12.593Z,74.38
2018-09-30T05:39:12.593Z,74.48
2018-09-30T05:40:12.571Z,74.77
2018-09-30T05:41:12.558Z,73.81
2018-09-30T05:42:12.548Z,74.19
2018-09-30T05:43:12.534Z,74.19
2018-09-30T05:44:12.521Z,73.91
2018-09-30T05:45:12.512Z,74.01
2018-09-30T05:46:12.497Z,73.72
2018-09-30T05:47:12.490Z,74.48
2018-09-30T05:48:12.476Z,74.96
2018-09-30T05:49:12.545Z,74.01
2018-09-30T05:50:12.452Z,75.15
2018-09-30T05:51:12.441Z,74.77
2018-09-30T05:52:12.434Z,74.96
2018-09-30T05:53:12.421Z,75.24
2018-09-30T05:54:12.406Z,74.77
2018-09-30T05:55:12.396Z,74.86
2018-09-30T05:56:12.380Z,74.77
2018-09-30T05:57:12.377Z,74.77
2018-09-30T05:58:12.360Z,75.43
2018-09-30T05:59:12.350Z,75.43
2018-09-30T06:00:12.337Z,75.62
2018-09-30T06:01:12.320Z,75.72
2018-09-30T06:02:12.312Z,75.91
2018-09-30T06:03:12.300Z,75.24
2018-09-30T06:04:12.288Z,74.77
2018-09-30T06:05:12.280Z,75.05
2018-09-30T06:06:12.262Z,74.86
2018-09-30T06:07:12.252Z,74.77
2018-09-30T06:08:12.241Z,75.81
2018-09-30T06:09:12.267Z,75.43
2018-09-30T06:10:12.216Z,74.86
2018-09-30T06:11:12.202Z,74.96
2018-09-30T06:12:12.195Z,74.57
2018-09-30T06:13:12.183Z,75.05
2018-09-30T06:14:12.256Z,75.34
2018-09-30T06:15:12.163Z,75.24
2018-09-30T06:16:12.149Z,75.34
2018-09-30T06:17:12.134Z,75.34
2018-09-30T06:18:12.149Z,76.01
2018-09-30T06:19:12.107Z,75.91
2018-09-30T06:20:12.094Z,76.48
2018-09-30T06:21:12.086Z,76.48
2018-09-30T06:22:12.070Z,76.01
2018-09-30T06:23:12.065Z,76.10
2018-09-30T06:24:12.117Z,76.10
2018-09-30T06:25:12.036Z,76.10
2018-09-30T06:26:12.026Z,76.57
2018-09-30T06:27:12.013Z,76.10
2018-09-30T06:28:12.006Z,76.10
2018-09-30T06:29:11.991Z,76.23
2018-09-30T06:30:11.978Z,76.20
2018-09-30T06:31:11.967Z,75.95
2018-09-30T06:32:11.978Z,75.05
2018-09-30T06:33:11.942Z,74.23
2018-09-30T06:34:11.933Z,74.48
2018-09-30T06:35:11.918Z,75.05
2018-09-30T06:36:11.908Z,74.86
2018-09-30T06:37:11.951Z,74.96
2018-09-30T06:38:11.886Z,75.15
2018-09-30T06:39:11.872Z,75.34
2018-09-30T06:40:11.862Z,75.34
2018-09-30T06:41:11.848Z,75.15
2018-09-30T06:42:11.845Z,74.71
2018-09-30T06:43:11.828Z,74.99
2018-09-30T06:44:11.811Z,75.28
2018-09-30T06:45:11.901Z,76.14
2018-09-30T06:46:11.787Z,76.52
2018-09-30T06:47:11.775Z,75.85
2018-09-30T06:48:11.768Z,75.66
2018-09-30T06:49:11.760Z,75.76
2018-09-30T06:50:11.745Z,75.95
2018-09-30T06:51:11.730Z,76.23
2018-09-30T06:52:11.722Z,76.62
2018-09-30T06:53:11.705Z,76.42
2018-09-30T06:54:11.692Z,76.52
2018-09-30T06:55:11.684Z,76.52
2018-09-30T06:56:11.674Z,76.71
2018-09-30T06:57:11.661Z,76.56
2018-09-30T06:58:11.653Z,75.89
2018-09-30T06:59:11.639Z,75.70
2018-09-30T07:00:11.623Z,75.60
2018-09-30T07:01:11.614Z,75.22
2018-09-30T07:02:11.599Z,74.93
2018-09-30T07:03:11.632Z,75.03
2018-09-30T07:04:11.578Z,74.49
2018-09-30T07:05:11.569Z,75.45
2018-09-30T07:06:11.554Z,74.30
2018-09-30T07:07:11.542Z,74.49
2018-09-30T07:08:11.533Z,74.53
2018-09-30T07:09:11.524Z,74.15
2018-09-30T07:10:11.506Z,74.05
2018-09-30T07:11:11.496Z,74.05
2018-09-30T07:12:11.489Z,74.44
2018-09-30T07:13:11.477Z,74.09
2018-09-30T07:14:11.482Z,73.71
2018-09-30T07:15:11.452Z,73.90
2018-09-30T07:16:11.444Z,73.23
2018-09-30T07:17:11.437Z,72.47
2018-09-30T07:18:11.418Z,72.47
2018-09-30T07:19:11.412Z,71.32
2018-09-30T07:20:11.397Z,72.28
2018-09-30T07:21:11.392Z,71.36
2018-09-30T07:22:11.398Z,71.16
2018-09-30T07:23:11.370Z,70.40
2018-09-30T07:24:11.359Z,70.68
2018-09-30T07:25:11.344Z,70.78
2018-09-30T07:26:11.331Z,70.59
2018-09-30T07:27:11.323Z,70.21
2018-09-30T07:28:11.312Z,70.40
2018-09-30T07:29:11.300Z,69.57
2018-09-30T07:30:11.288Z,69.48
2018-09-30T07:31:11.274Z,69.19
2018-09-30T07:32:11.266Z,69.76
2018-09-30T07:33:11.258Z,69.57
2018-09-30T07:34:11.250Z,69.09
2018-09-30T07:35:11.285Z,68.74
2018-09-30T07:36:11.217Z,68.65
2018-09-30T07:37:11.213Z,67.88
2018-09-30T07:38:11.206Z,67.88
2018-09-30T07:39:11.192Z,67.79
2018-09-30T07:40:11.181Z,67.79
2018-09-30T07:41:11.172Z,68.17
2018-09-30T07:42:11.158Z,67.60
2018-09-30T07:43:11.154Z,67.11
2018-09-30T07:44:11.148Z,67.05
2018-09-30T07:45:11.135Z,67.15
2018-09-30T07:46:11.120Z,67.25
2018-09-30T07:47:11.106Z,67.91
2018-09-30T07:48:11.099Z,67.15
2018-09-30T07:49:11.096Z,67.34
2018-09-30T07:50:11.078Z,66.48
2018-09-30T07:51:11.074Z,65.52
2018-09-30T07:52:11.066Z,66.00
2018-09-30T07:53:11.054Z,65.62
2018-09-30T07:54:11.038Z,65.23
2018-09-30T07:55:11.033Z,64.69
2018-09-30T07:56:11.022Z,65.08
2018-09-30T07:57:11.006Z,64.89
2018-09-30T07:58:11.003Z,64.50
2018-09-30T07:59:10.997Z,64.89
2018-09-30T08:00:10.982Z,65.08
2018-09-30T08:01:10.964Z,64.89
2018-09-30T08:02:10.962Z,65.88
2018-09-30T08:03:10.954Z,66.42
2018-09-30T08:04:10.933Z,65.84
2018-09-30T08:05:10.938Z,65.68
2018-09-30T08:06:10.922Z,65.59
2018-09-30T08:07:10.914Z,65.01
2018-09-30T08:08:10.901Z,64.53
2018-09-30T08:09:10.893Z,64.25
2018-09-30T08:10:10.886Z,64.72
2018-09-30T08:11:10.870Z,65.20
2018-09-30T08:12:10.863Z,64.92
2018-09-30T08:13:10.855Z,64.37
2018-09-30T08:14:10.849Z,64.09
2018-09-30T08:15:10.833Z,65.43
2018-09-30T08:16:10.825Z,65.43
2018-09-30T08:17:10.818Z,64.37
2018-09-30T08:18:10.805Z,63.42
2018-09-30T08:19:10.800Z,63.42
2018-09-30T08:20:10.785Z,63.51
2018-09-30T08:21:10.776Z,61.88
2018-09-30T08:22:10.776Z,62.19
2018-09-30T08:23:10.774Z,61.62
2018-09-30T08:24:10.884Z,61.91
2018-09-30T08:25:10.736Z,61.33
2018-09-30T08:26:10.735Z,61.33
2018-09-30T08:27:10.719Z,61.62
2018-09-30T08:28:10.714Z,61.33
2018-09-30T08:29:10.703Z,60.08
2018-09-30T08:30:10.704Z,60.08
2018-09-30T08:31:10.687Z,61.17
2018-09-30T08:32:10.676Z,61.43
2018-09-30T08:33:10.669Z,60.08
2018-09-30T08:34:10.662Z,62.10
2018-09-30T08:35:10.648Z,62.71
2018-09-30T08:36:10.644Z,61.36
2018-09-30T08:37:10.629Z,61.46
2018-09-30T08:38:10.623Z,60.50
2018-09-30T08:39:10.620Z,60.31
2018-09-30T08:40:10.606Z,60.31
2018-09-30T08:41:10.596Z,60.21
2018-09-30T08:42:10.587Z,60.50
2018-09-30T08:43:10.580Z,60.34
2018-09-30T08:44:10.623Z,57.52
2018-09-30T08:45:10.567Z,56.76
2018-09-30T08:46:10.557Z,56.18
2018-09-30T08:47:10.604Z,56.98
2018-09-30T08:48:10.537Z,57.84
2018-09-30T08:49:10.553Z,60.43
2018-09-30T08:50:10.520Z,60.14
2018-09-30T08:51:10.511Z,59.19
2018-09-30T08:52:10.501Z,58.03
2018-09-30T08:53:10.495Z,59.19
2018-09-30T08:54:10.487Z,57.68
2018-09-30T08:55:10.471Z,57.58
2018-09-30T08:56:10.572Z,56.52
2018-09-30T08:57:10.460Z,56.14
2018-09-30T08:58:10.452Z,56.71
2018-09-30T08:59:10.448Z,57.00
2018-09-30T09:00:10.432Z,55.76
2018-09-30T09:01:10.424Z,55.27
2018-09-30T09:02:10.418Z,56.07
2018-09-30T09:03:10.501Z,56.55
2018-09-30T09:04:10.406Z,56.84
2018-09-30T09:05:10.397Z,55.68
2018-09-30T09:06:10.385Z,55.88
2018-09-30T09:07:10.377Z,56.16
2018-09-30T09:08:10.367Z,54.82
2018-09-30T09:09:10.365Z,53.74
2018-09-30T09:10:10.351Z,53.28
2018-09-30T09:11:10.348Z,52.97
2018-09-30T09:12:10.336Z,52.87
2018-09-30T09:13:10.329Z,53.54
2018-09-30T09:14:10.320Z,53.86
2018-09-30T09:15:10.310Z,55.78
2018-09-30T09:16:10.302Z,56.26
2018-09-30T09:17:10.298Z,56.87
2018-09-30T09:18:10.286Z,56.29
2018-09-30T09:19:10.282Z,54.94
2018-09-30T09:20:10.271Z,55.04
2018-09-30T09:21:10.265Z,56.20
2018-09-30T09:22:10.294Z,56.41
2018-09-30T09:23:10.249Z,55.45
2018-09-30T09:24:10.240Z,54.68
2018-09-30T09:25:10.232Z,54.49
2018-09-30T09:26:10.224Z,53.05
2018-09-30T09:27:10.216Z,50.63
2018-09-30T09:28:10.260Z,50.25
2018-09-30T09:29:10.201Z,50.06
2018-09-30T09:30:10.195Z,50.73
2018-09-30T09:31:10.189Z,49.94
2018-09-30T09:32:10.180Z,49.55
2018-09-30T09:33:10.277Z,48.40
2018-09-30T09:34:10.160Z,48.49
2018-09-30T09:35:10.203Z,49.65
2018-09-30T09:36:10.153Z,50.23
2018-09-30T09:37:10.143Z,50.23
2018-09-30T09:38:10.135Z,51.31
2018-09-30T09:39:10.127Z,50.45
2018-09-30T09:40:10.125Z,50.54
2018-09-30T09:41:10.116Z,49.29
2018-09-30T09:42:10.101Z,48.33
2018-09-30T09:43:10.097Z,48.90
2018-09-30T09:44:10.086Z,49.87
2018-09-30T09:45:10.080Z,48.43
2018-09-30T09:46:10.074Z,48.52
2018-09-30T09:47:10.115Z,48.43
2018-09-30T09:48:10.059Z,48.52
2018-09-30T09:49:10.048Z,48.71
2018-09-30T09:50:10.072Z,48.13
2018-09-30T09:51:10.032Z,48.16
2018-09-30T09:52:10.026Z,46.81
2018-09-30T09:53:10.020Z,48.35
2018-09-30T09:54:10.011Z,49.41
2018-09-30T09:55:10.011Z,50.66
2018-09-30T09:56:09.994Z,48.93
2018-09-30T09:57:09.993Z,48.25
2018-09-30T09:58:09.978Z,48.64
2018-09-30T09:59:10.058Z,48.74
2018-09-30T10:00:09.969Z,49.79
2018-09-30T10:01:09.963Z,48.54
2018-09-30T10:02:09.953Z,49.12
2018-09-30T10:03:09.945Z,48.54
2018-09-30T10:04:09.939Z,48.93
2018-09-30T10:05:09.964Z,48.54
2018-09-30T10:06:09.928Z,49.32
2018-09-30T10:07:09.922Z,49.53
2018-09-30T10:08:09.975Z,49.89
2018-09-30T10:09:09.904Z,49.60
2018-09-30T10:10:09.890Z,49.22
2018-09-30T10:11:09.890Z,48.54
2018-09-30T10:12:09.884Z,48.38
2018-09-30T10:13:09.940Z,49.24
2018-09-30T10:14:09.868Z,49.63
2018-09-30T10:15:09.863Z,48.47
2018-09-30T10:16:09.857Z,48.28
2018-09-30T10:17:09.845Z,47.22
2018-09-30T10:18:09.839Z,46.91
2018-09-30T10:19:09.837Z,45.97
2018-09-30T10:20:09.824Z,45.97
2018-09-30T10:21:09.815Z,47.51
2018-09-30T10:22:09.809Z,47.80
2018-09-30T10:23:09.806Z,48.40
2018-09-30T10:24:09.801Z,48.11
2018-09-30T10:25:09.790Z,48.01
2018-09-30T10:26:09.782Z,49.17
2018-09-30T10:27:09.774Z,49.87
2018-09-30T10:28:09.769Z,48.81
2018-09-30T10:29:09.763Z,50.26
2018-09-30T10:30:09.757Z,48.61
2018-09-30T10:31:09.745Z,47.45
2018-09-30T10:32:09.742Z,46.11
2018-09-30T10:33:09.734Z,45.92
2018-09-30T10:34:09.722Z,45.92
2018-09-30T10:35:09.718Z,45.72
2018-09-30T10:36:09.713Z,46.20
2018-09-30T10:37:09.710Z,46.30
2018-09-30T10:38:09.695Z,48.13
2018-09-30T10:39:09.812Z,48.33
2018-09-30T10:40:09.685Z,47.27
2018-09-30T10:41:09.686Z,46.88
2018-09-30T10:42:09.673Z,46.69
2018-09-30T10:43:09.665Z,46.59
2018-09-30T10:44:09.663Z,46.59
2018-09-30T10:45:09.652Z,45.62
2018-09-30T10:46:09.649Z,45.43
2018-09-30T10:47:09.639Z,46.11
2018-09-30T10:48:09.630Z,46.97
2018-09-30T10:49:09.616Z,47.65
2018-09-30T10:50:09.622Z,48.61
2018-09-30T10:51:09.614Z,47.05
2018-09-30T10:52:09.603Z,47.41
2018-09-30T10:53:09.600Z,48.66
2018-09-30T10:54:09.592Z,49.07
2018-09-30T10:55:09.643Z,48.21
2018-09-30T10:56:09.586Z,46.86
2018-09-30T10:57:09.574Z,46.08
2018-09-30T10:58:09.569Z,47.44
2018-09-30T10:59:09.557Z,47.34
2018-09-30T11:00:09.555Z,47.63
2018-09-30T11:01:09.547Z,47.53
2018-09-30T11:02:09.542Z,48.01
2018-09-30T11:03:09.527Z,45.41
2018-09-30T11:04:09.526Z,45.89
2018-09-30T11:05:09.533Z,45.79
2018-09-30T11:06:09.507Z,47.44
2018-09-30T11:07:09.508Z,46.37
2018-09-30T11:08:09.500Z,45.70
2018-09-30T11:09:09.494Z,47.24
2018-09-30T11:10:09.510Z,46.56
2018-09-30T11:11:09.480Z,46.69
2018-09-30T11:12:09.475Z,46.88
2018-09-30T11:13:09.466Z,46.88
2018-09-30T11:14:09.463Z,46.01
2018-09-30T11:15:09.450Z,44.76
2018-09-30T11:16:09.517Z,44.95
2018-09-30T11:17:09.438Z,44.37
2018-09-30T11:18:09.435Z,44.08
2018-09-30T11:19:09.428Z,44.56
2018-09-30T11:20:09.419Z,46.42
2018-09-30T11:21:09.411Z,45.24
2018-09-30T11:22:09.403Z,44.18
2018-09-30T11:23:09.401Z,44.37
2018-09-30T11:24:09.393Z,43.91
2018-09-30T11:25:09.384Z,43.89
2018-09-30T11:26:09.384Z,43.60
2018-09-30T11:27:09.371Z,43.41
2018-09-30T11:28:09.369Z,44.37
2018-09-30T11:29:09.359Z,44.49
2018-09-30T11:30:09.359Z,44.39
2018-09-30T11:31:09.350Z,43.41
2018-09-30T11:32:09.344Z,42.08
2018-09-30T11:33:09.332Z,43.41
2018-09-30T11:34:09.324Z,42.83
2018-09-30T11:35:09.327Z,42.73
2018-09-30T11:36:09.316Z,44.49
2018-09-30T11:37:09.310Z,43.24
2018-09-30T11:38:09.303Z,43.72
2018-09-30T11:39:09.302Z,43.14
2018-09-30T11:40:09.292Z,43.52
2018-09-30T11:41:09.288Z,43.91
2018-09-30T11:42:09.274Z,44.01
2018-09-30T11:43:09.273Z,43.04
2018-09-30T11:44:09.270Z,42.66
2018-09-30T11:45:09.260Z,43.04
2018-09-30T11:46:09.253Z,44.20
2018-09-30T11:47:09.244Z,43.33
2018-09-30T11:48:09.244Z,44.01
2018-09-30T11:49:09.230Z,43.62
2018-09-30T11:50:09.230Z,43.24
2018-09-30T11:51:09.217Z,42.56
2018-09-30T11:52:09.219Z,43.33
2018-09-30T11:53:09.215Z,42.85
2018-09-30T11:54:09.197Z,42.66
2018-09-30T11:55:09.197Z,42.18
2018-09-30T11:56:09.185Z,42.29
2018-09-30T11:57:09.185Z,42.97
2018-09-30T11:58:09.183Z,43.64
2018-09-30T11:59:09.170Z,44.22
2018-09-30T12:00:09.166Z,42.12
2018-09-30T12:01:09.161Z,41.63
2018-09-30T12:02:09.205Z,41.35
2018-09-30T12:03:09.146Z,41.93
2018-09-30T12:04:09.137Z,42.31
2018-09-30T12:05:09.132Z,40.96
2018-09-30T12:06:09.126Z,41.03
2018-09-30T12:07:09.125Z,41.23
2018-09-30T12:08:09.109Z,41.03
2018-09-30T12:09:09.106Z,40.84
2018-09-30T12:10:09.100Z,40.84
2018-09-30T12:11:09.096Z,41.91
2018-09-30T12:12:09.090Z,41.91
2018-09-30T12:13:09.080Z,42.19
2018-09-30T12:14:09.076Z,41.91
2018-09-30T12:15:09.073Z,42.58
2018-09-30T12:16:09.067Z,41.81
2018-09-30T12:17:09.056Z,41.83
2018-09-30T12:18:09.054Z,42.41
2018-09-30T12:19:09.047Z,42.60
2018-09-30T12:20:09.045Z,41.73
2018-09-30T12:21:09.037Z,42.24
2018-09-30T12:22:09.025Z,42.14
2018-09-30T12:23:09.023Z,39.34
2018-09-30T12:24:09.017Z,40.01
2018-09-30T12:25:09.010Z,40.32
2018-09-30T12:26:09.004Z,38.97
2018-09-30T12:27:08.996Z,39.84
2018-09-30T12:28:08.994Z,41.09
2018-09-30T12:29:08.986Z,40.52
2018-09-30T12:30:08.979Z,41.31
2018-09-30T12:31:08.971Z,40.44
2018-09-30T12:32:08.968Z,40.44
2018-09-30T12:33:08.963Z,39.37
2018-09-30T12:34:08.958Z,39.47
2018-09-30T12:35:08.952Z,38.39
2018-09-30T12:36:08.945Z,39.26
2018-09-30T12:37:08.935Z,40.53
2018-09-30T12:38:08.930Z,40.73
2018-09-30T12:39:08.941Z,38.39
2018-09-30T12:40:08.926Z,38.68
2018-09-30T12:41:08.916Z,38.97
2018-09-30T12:42:08.910Z,38.87
2018-09-30T12:43:08.908Z,37.92
2018-09-30T12:44:08.896Z,37.71
2018-09-30T12:45:08.894Z,37.82
2018-09-30T12:46:08.888Z,38.31
2018-09-30T12:47:08.887Z,37.44
2018-09-30T12:48:08.875Z,38.21
2018-09-30T12:49:08.872Z,36.86
2018-09-30T12:50:08.864Z,37.26
2018-09-30T12:51:08.857Z,37.07
2018-09-30T12:52:08.855Z,37.94